Terminal Aerodrome Forecast
Issued by NWS Sterling, VA

Current Version | Previous Version | Graphics & Text | Print | Product List | Glossary On
Versions: 1 2 3 4 5 6 7 8 9 10 11 12 13 14 15 16 17 18 19 20 21 22 23 24
000
FTUS41 KLWX 280200 AAA
TAFIAD
TAF AMD
KIAD 280212Z 2802/2906 22008KT P6SM SCT050 BKN090
     FM280300 24007KT 5SM -TSRA BKN050CB
     FM280500 24005KT P6SM VCTS BKN050CB
     FM280600 24006KT P6SM SCT050 BKN090
     FM281100 27009KT P6SM FEW050 SCT130
     FM281300 27011KT P6SM SCT050 BKN090
     FM290200 31007KT P6SM BKN090=

USA.gov is the U.S. government's official web portal to all federal, state and local government web resources and services.